createdAt,value
2018-04-12T14:30:27.702Z,39.53
2018-04-12T14:32:56.105Z,39.13
2018-04-12T14:35:24.322Z,43.77
2018-04-12T14:37:52.991Z,42.70
2018-04-12T14:40:25.884Z,41.53
2018-04-12T14:45:38.718Z,39.40
2018-04-12T14:48:07.421Z,39.77
2018-04-12T14:50:39.115Z,38.37
2018-04-12T14:53:09.767Z,40.80
2018-04-12T14:55:40.984Z,37.37
2018-04-12T14:58:09.425Z,36.70
2018-04-12T15:00:38.886Z,39.10
2018-04-12T15:03:09.224Z,37.73
2018-04-12T15:05:41.149Z,36.33
2018-04-12T15:08:18.083Z,33.73
2018-04-12T15:10:49.645Z,32.37
2018-04-12T15:13:27.811Z,35.13
2018-04-12T15:16:00.496Z,32.93
2018-04-12T15:18:38.992Z,30.90
2018-04-12T15:21:10.161Z,31.37
2018-04-12T15:23:48.833Z,29.60
2018-04-12T15:29:47.480Z,27.67
2018-04-12T15:32:33.055Z,25.27
2018-04-12T15:35:03.287Z,27.00
2018-04-12T15:37:35.353Z,24.30
2018-04-12T15:40:10.375Z,24.33
2018-04-12T15:42:48.576Z,24.23
2018-04-12T15:45:40.035Z,24.23
2018-04-12T15:51:26.902Z,29.93
2018-04-12T15:57:13.635Z,30.13
2018-04-12T16:46:12.405Z,16.60
2018-04-12T16:48:44.866Z,15.50
2018-04-12T17:00:21.937Z,14.73
2018-04-12T17:06:10.886Z,13.07
2018-04-12T17:14:28.774Z,14.47
2018-04-12T17:23:41.980Z,13.13
2018-04-12T17:26:13.421Z,13.00
2018-04-12T17:28:41.861Z,12.93
2018-04-12T17:31:10.883Z,12.97
2018-04-12T17:33:39.012Z,15.20
2018-04-12T17:36:07.172Z,18.37
2018-04-12T17:38:37.121Z,15.93
2018-04-12T17:41:05.250Z,16.13
2018-04-12T17:43:34.406Z,14.80
2018-04-12T17:46:03.095Z,12.60
2018-04-12T17:48:32.569Z,13.40
2018-04-12T17:51:00.741Z,11.60
2018-04-12T17:53:33.256Z,10.70
2018-04-12T17:56:01.908Z,12.37
2018-04-12T17:58:30.244Z,18.07
2018-04-12T18:01:02.286Z,11.70
2018-04-12T18:03:31.718Z,11.53
2018-04-12T18:06:01.330Z,11.30
2018-04-12T18:08:29.506Z,11.80
2018-04-12T18:10:57.630Z,10.27
2018-04-12T18:13:25.758Z,10.00
2018-04-12T18:15:53.863Z,10.20
2018-04-12T18:18:23.387Z,11.87
2018-04-12T18:20:51.485Z,11.50
2018-04-12T18:23:20.370Z,14.70
2018-04-12T18:25:49.218Z,14.80
2018-04-12T18:28:17.301Z,17.00
2018-04-12T18:30:45.448Z,17.63
2018-04-12T18:33:13.568Z,19.60
2018-04-12T18:35:41.704Z,18.00
2018-04-12T18:38:09.805Z,17.00
2018-04-12T18:40:37.889Z,17.80
2018-04-12T18:43:06.054Z,18.23
2018-04-12T18:45:34.354Z,17.20
2018-04-12T18:48:03.235Z,16.73
2018-04-12T18:50:32.102Z,16.57
2018-04-12T18:53:00.182Z,17.00
2018-04-12T18:55:28.519Z,17.10
2018-04-12T18:57:56.749Z,16.83
2018-04-12T19:00:25.613Z,17.47
2018-04-12T19:02:53.713Z,20.20
2018-04-12T19:05:22.570Z,19.90
2018-04-12T19:07:51.740Z,18.37
2018-04-12T19:10:20.523Z,17.40
2018-04-12T19:12:48.657Z,18.20
2018-04-12T19:15:16.741Z,17.13
2018-04-12T19:17:45.605Z,16.77
2018-04-12T19:20:13.976Z,17.40
2018-04-12T19:22:42.020Z,17.13
2018-04-12T19:25:12.249Z,16.77
2018-04-12T19:27:40.334Z,15.87
2018-04-12T19:30:08.444Z,16.20
2018-04-12T19:32:36.608Z,18.40
2018-04-12T19:35:04.764Z,17.67
2018-04-12T19:37:32.861Z,16.77
2018-04-12T19:40:01.747Z,23.33
2018-04-12T19:42:29.879Z,22.97
2018-04-12T19:44:58.772Z,21.17
2018-04-12T19:47:26.852Z,20.90
2018-04-12T19:49:54.959Z,19.10
2018-04-12T19:52:23.061Z,19.37
2018-04-12T19:54:51.163Z,22.43
2018-04-12T19:57:19.262Z,19.53
2018-04-12T19:59:47.394Z,21.40
2018-04-12T20:02:16.268Z,21.97
2018-04-12T20:04:44.361Z,21.20
2018-04-12T20:07:12.467Z,18.23
2018-04-12T20:09:40.556Z,17.87
2018-04-12T20:12:08.871Z,15.40
2018-04-12T20:14:37.017Z,16.97
2018-04-12T20:17:05.942Z,16.67
2018-04-12T20:19:34.051Z,21.50
2018-04-12T20:22:03.044Z,19.87
2018-04-12T20:24:31.192Z,16.50
2018-04-12T20:26:59.284Z,18.00
2018-04-12T20:29:28.036Z,15.90
2018-04-12T20:31:57.132Z,15.20
2018-04-12T20:34:25.893Z,15.70
2018-04-12T20:36:54.610Z,16.47
2018-04-12T20:39:23.502Z,15.97
2018-04-12T20:41:54.260Z,16.40
2018-04-12T20:44:23.639Z,15.67
2018-04-12T20:46:52.721Z,15.27
2018-04-12T20:49:23.230Z,15.10
2018-04-12T20:51:52.181Z,14.53
2018-04-12T20:56:56.345Z,15.53
2018-04-12T20:59:25.089Z,15.37
2018-04-12T21:01:53.671Z,16.30
2018-04-12T21:04:23.318Z,14.70
2018-04-12T21:06:55.484Z,15.60
2018-04-12T21:09:23.642Z,14.83
2018-04-12T21:11:51.716Z,14.13
2018-04-12T21:14:19.876Z,16.07
2018-04-12T21:16:49.050Z,14.53
2018-04-12T21:19:17.133Z,14.27
2018-04-12T21:21:47.335Z,17.60
2018-04-12T21:24:15.430Z,17.07
2018-04-12T21:26:43.538Z,15.40
2018-04-12T21:29:11.636Z,15.87
2018-04-12T21:31:40.501Z,16.23
2018-04-12T21:34:08.597Z,16.73
2018-04-12T21:36:36.683Z,16.70
2018-04-12T21:39:04.797Z,15.87
2018-04-12T21:41:32.908Z,15.00
2018-04-12T21:44:01.042Z,15.43
2018-04-12T21:46:29.121Z,15.20
2018-04-12T21:48:57.220Z,16.20
2018-04-12T21:51:25.388Z,15.33
2018-04-12T21:53:54.248Z,14.80
2018-04-12T21:56:23.278Z,15.30
2018-04-12T21:58:52.245Z,15.67
2018-04-12T22:01:21.133Z,15.47
2018-04-12T22:03:49.253Z,15.70
2018-04-12T22:06:18.109Z,16.37
2018-04-12T22:08:46.233Z,14.80
2018-04-12T22:11:14.341Z,15.33
2018-04-12T22:13:42.434Z,16.70
2018-04-12T22:16:10.530Z,15.63
2018-04-12T22:18:38.678Z,15.10
2018-04-12T22:21:06.785Z,15.77
2018-04-12T22:23:35.660Z,15.83
2018-04-12T22:26:03.820Z,17.37
2018-04-12T22:28:31.902Z,16.00
2018-04-12T22:31:02.110Z,15.17
2018-04-12T22:33:30.461Z,15.50
2018-04-12T22:35:58.565Z,15.50
2018-04-12T22:38:28.013Z,15.87
2018-04-12T22:40:56.241Z,17.73
2018-04-12T22:43:24.337Z,17.30
2018-04-12T22:45:53.229Z,18.33
2018-04-12T22:48:21.329Z,16.47
2018-04-12T22:50:49.463Z,17.07
2018-04-12T22:53:17.592Z,16.30
2018-04-12T22:55:45.764Z,17.40
2018-04-12T22:58:13.866Z,16.33
2018-04-12T23:00:42.753Z,15.70
2018-04-12T23:03:10.842Z,16.23
2018-04-12T23:05:38.929Z,16.50
2018-04-12T23:08:07.028Z,16.67
2018-04-12T23:10:35.186Z,15.83
2018-04-12T23:13:03.378Z,15.13
2018-04-12T23:15:31.462Z,14.40
2018-04-12T23:18:00.574Z,15.23
2018-04-12T23:20:28.763Z,17.20
2018-04-12T23:22:56.885Z,14.43
2018-04-12T23:25:24.985Z,16.33
2018-04-12T23:27:53.106Z,15.87
2018-04-12T23:30:21.206Z,17.00
2018-04-12T23:32:49.315Z,16.60
2018-04-12T23:35:17.438Z,18.30
2018-04-12T23:37:45.514Z,17.07
2018-04-12T23:40:13.590Z,15.77
2018-04-12T23:42:41.685Z,15.60
2018-04-12T23:45:10.780Z,17.80
2018-04-12T23:47:39.137Z,18.27
2018-04-12T23:50:07.598Z,18.50
2018-04-12T23:52:36.470Z,18.40
2018-04-12T23:55:04.608Z,16.40
2018-04-12T23:57:32.870Z,16.87
